Time;durP1;ratioP1;P1;durP2;ratioP2;P2;SDS_P1;SDS_P2;PMS_P1;PMS_P2;Temp;Humidity;BMP_temperature;BMP_pressure;BME280_temperature;BME280_humidity;BME280_pressure;Samples;Min_cycle;Max_cycle;Signal;HPM_P1;HPM_P2
2021/07/28 00:01:25;;;;;;;16.87;13.73;;;15.70;99.90;;;;;;5005480;28;20226;-65
2021/07/28 00:03:51;;;;;;;18.83;13.87;;;15.70;99.90;;;;;;5012257;28;20175;-66
2021/07/28 00:06:26;;;;;;;20.47;14.77;;;15.70;99.90;;;;;;4999927;28;20616;-65
2021/07/28 00:08:51;;;;;;;15.43;13.70;;;15.70;99.90;;;;;;4992545;28;20279;-65
2021/07/28 00:11:18;;;;;;;20.90;13.67;;;15.80;99.90;;;;;;5002467;28;20259;-65
2021/07/28 00:13:45;;;;;;;15.97;14.27;;;15.80;99.90;;;;;;5012089;28;20298;-65
2021/07/28 00:16:13;;;;;;;21.87;13.57;;;15.80;99.90;;;;;;5000210;28;20550;-65
2021/07/28 00:18:55;;;;;;;18.20;13.67;;;15.80;99.90;;;;;;4992098;28;20210;-66
2021/07/28 00:24:05;;;;;;;22.63;16.03;;;15.90;99.90;;;;;;4992360;28;20211;-65
2021/07/28 00:26:31;;;;;;;24.20;16.87;;;15.90;99.90;;;;;;5003705;28;20671;-65
2021/07/28 00:28:56;;;;;;;20.23;17.50;;;15.90;99.90;;;;;;5012193;28;20670;-65
2021/07/28 00:31:22;;;;;;;17.03;15.30;;;15.90;99.90;;;;;;5010352;28;20184;-67
2021/07/28 00:33:48;;;;;;;24.60;17.63;;;15.90;99.90;;;;;;5010671;28;20235;-65
2021/07/28 00:36:13;;;;;;;23.60;19.73;;;15.90;99.90;;;;;;5003282;28;20528;-68
2021/07/28 00:38:39;;;;;;;25.17;16.83;;;15.90;99.90;;;;;;4991858;28;20212;-67
2021/07/28 00:41:04;;;;;;;20.10;18.00;;;15.90;99.90;;;;;;4994292;28;20181;-67
2021/07/28 00:43:31;;;;;;;16.03;14.33;;;15.90;99.90;;;;;;4992207;28;20189;-67
2021/07/28 00:45:56;;;;;;;21.50;13.97;;;15.90;99.90;;;;;;4992785;28;20311;-67
2021/07/28 00:48:22;;;;;;;18.93;14.00;;;15.90;99.90;;;;;;4992118;28;20279;-67
2021/07/28 00:50:47;;;;;;;22.47;14.27;;;15.80;99.90;;;;;;4994905;28;20183;-67
2021/07/28 00:53:18;;;;;;;19.83;14.30;;;15.80;99.90;;;;;;5011617;28;20178;-67
2021/07/28 00:55:46;;;;;;;22.07;14.27;;;15.80;99.90;;;;;;5010795;28;20172;-68
2021/07/28 00:58:11;;;;;;;16.87;15.17;;;15.80;99.90;;;;;;5011743;28;20219;-68
2021/07/28 01:00:38;;;;;;;22.70;20.30;;;15.80;99.90;;;;;;5008874;28;20172;-67
2021/07/28 01:03:03;;;;;;;27.57;24.87;;;15.90;99.90;;;;;;4992013;28;20580;-67
2021/07/28 01:05:29;;;;;;;27.27;24.73;;;15.90;99.90;;;;;;4991927;28;20173;-67
2021/07/28 01:07:55;;;;;;;26.67;24.33;;;15.90;99.90;;;;;;5010530;28;20219;-67
2021/07/28 01:10:21;;;;;;;28.97;26.63;;;16.00;99.90;;;;;;5011486;28;20172;-67
2021/07/28 01:12:52;;;;;;;27.30;24.70;;;16.00;99.90;;;;;;5009748;28;20180;-67
2021/07/28 01:18:13;;;;;;;21.87;15.07;;;16.10;99.90;;;;;;4993013;28;20197;-67
2021/07/28 01:20:41;;;;;;;22.23;15.03;;;16.10;99.90;;;;;;4991874;28;20192;-65
2021/07/28 01:23:12;;;;;;;19.47;17.37;;;16.10;99.90;;;;;;5010693;28;20176;-65
2021/07/28 01:25:39;;;;;;;18.30;16.33;;;16.00;99.90;;;;;;5011449;28;20211;-65
2021/07/28 01:28:06;;;;;;;21.47;19.37;;;16.00;99.90;;;;;;4993183;28;20684;-65
2021/07/28 01:30:32;;;;;;;35.50;32.67;;;16.00;99.90;;;;;;4991621;28;20196;-65
2021/07/28 01:33:01;;;;;;;26.37;20.73;;;16.00;99.90;;;;;;5007997;28;20168;-65
2021/07/28 01:35:28;;;;;;;19.83;14.70;;;16.00;99.90;;;;;;5008109;28;20180;-66
2021/07/28 01:37:54;;;;;;;18.60;13.83;;;16.00;99.90;;;;;;4991591;28;20304;-65
2021/07/28 01:40:20;;;;;;;24.00;21.73;;;15.90;99.90;;;;;;5001968;28;20180;-66
2021/07/28 01:42:46;;;;;;;19.53;17.57;;;15.90;99.90;;;;;;5011193;28;20176;-65
2021/07/28 01:45:14;;;;;;;19.40;16.57;;;15.90;99.90;;;;;;5001981;28;20192;-65
2021/07/28 01:47:41;;;;;;;19.00;16.07;;;15.90;99.90;;;;;;4991742;28;20204;-66
2021/07/28 01:50:08;;;;;;;23.17;20.67;;;15.90;99.90;;;;;;4999066;28;20180;-66
2021/07/28 01:52:38;;;;;;;24.27;19.80;;;15.80;99.90;;;;;;5009704;28;20300;-65
2021/07/28 01:55:05;;;;;;;21.77;19.80;;;15.80;99.90;;;;;;5003833;28;20209;-65
2021/07/28 01:57:31;;;;;;;24.13;21.00;;;15.70;99.90;;;;;;4992646;28;20212;-68
2021/07/28 02:00:00;;;;;;;22.83;20.83;;;15.60;99.90;;;;;;5001038;28;20651;-66
2021/07/28 02:02:34;;;;;;;23.40;21.17;;;15.70;99.90;;;;;;5013702;28;20179;-66
2021/07/28 02:05:00;;;;;;;24.30;21.87;;;15.50;99.90;;;;;;5002838;28;20255;-66
2021/07/28 02:07:26;;;;;;;20.37;15.17;;;15.60;99.90;;;;;;4994220;28;20172;-65
2021/07/28 02:09:52;;;;;;;28.10;25.50;;;15.60;99.90;;;;;;5004955;28;20172;-65
2021/07/28 02:12:17;;;;;;;24.47;21.90;;;15.60;99.90;;;;;;5015705;28;20196;-65
2021/07/28 02:14:43;;;;;;;19.60;17.53;;;15.70;99.90;;;;;;4998539;28;20631;-65
2021/07/28 02:17:08;;;;;;;19.50;17.53;;;15.60;99.90;;;;;;4994980;28;20177;-66
2021/07/28 02:19:34;;;;;;;19.40;17.03;;;15.70;99.90;;;;;;5007008;28;20180;-66
2021/07/28 02:22:00;;;;;;;19.23;16.70;;;15.70;99.90;;;;;;5012949;28;20204;-65
2021/07/28 02:24:26;;;;;;;17.90;14.80;;;15.80;99.90;;;;;;5001498;28;20652;-65
2021/07/28 02:26:51;;;;;;;17.17;14.63;;;15.80;99.90;;;;;;4995259;28;20260;-66
2021/07/28 02:29:17;;;;;;;18.60;14.40;;;15.90;99.90;;;;;;5014177;28;20196;-65
2021/07/28 02:31:42;;;;;;;17.83;15.07;;;15.90;99.90;;;;;;5014038;28;20183;-66
2021/07/28 02:34:08;;;;;;;19.70;16.83;;;16.00;99.90;;;;;;4994565;28;20715;-66
2021/07/28 02:36:33;;;;;;;20.23;18.17;;;16.00;99.90;;;;;;4994148;28;20181;-65
2021/07/28 02:41:27;;;;;;;18.87;15.83;;;16.10;99.90;;;;;;5031971;28;20216;-66
2021/07/28 02:43:52;;;;;;;20.87;16.27;;;16.10;99.90;;;;;;5033266;28;20653;-66
2021/07/28 02:46:21;;;;;;;22.60;15.47;;;16.10;99.90;;;;;;5033737;28;20247;-66
2021/07/28 02:48:47;;;;;;;21.77;16.40;;;16.10;99.90;;;;;;5033513;28;20198;-66
2021/07/28 02:51:12;;;;;;;18.50;15.77;;;16.10;99.90;;;;;;5032934;28;20179;-66
2021/07/28 02:53:38;;;;;;;20.87;14.80;;;16.10;99.90;;;;;;5033932;28;20207;-66
2021/07/28 02:56:04;;;;;;;17.70;15.53;;;16.10;99.90;;;;;;5032884;28;20192;-65
2021/07/28 02:58:29;;;;;;;21.17;15.43;;;16.10;99.90;;;;;;5031898;28;20191;-65
2021/07/28 03:00:55;;;;;;;19.60;15.53;;;16.10;99.90;;;;;;5032974;28;20225;-66
2021/07/28 03:03:21;;;;;;;16.83;15.03;;;16.00;99.90;;;;;;5031801;28;20185;-65
2021/07/28 03:05:47;;;;;;;24.00;14.50;;;16.00;99.90;;;;;;5032945;28;20259;-66
2021/07/28 03:08:13;;;;;;;20.00;15.30;;;16.00;99.90;;;;;;5032444;28;20278;-67
2021/07/28 03:10:38;;;;;;;19.07;14.90;;;16.00;99.90;;;;;;5032817;28;20176;-67
2021/07/28 03:13:04;;;;;;;23.77;15.87;;;16.00;99.90;;;;;;5032824;28;20175;-65
2021/07/28 03:15:29;;;;;;;20.97;15.93;;;16.00;99.90;;;;;;5032838;28;20176;-65
2021/07/28 03:17:55;;;;;;;19.53;17.43;;;16.00;99.90;;;;;;5032231;28;20227;-66
2021/07/28 03:20:20;;;;;;;18.77;16.57;;;16.00;99.90;;;;;;5032795;28;20641;-66
2021/07/28 03:22:46;;;;;;;21.90;15.83;;;16.00;99.90;;;;;;5032553;28;20229;-66
2021/07/28 03:25:12;;;;;;;21.53;17.47;;;16.00;99.90;;;;;;5032394;28;20650;-66
2021/07/28 03:27:38;;;;;;;18.90;17.10;;;16.00;99.90;;;;;;5032612;28;20174;-65
2021/07/28 03:30:04;;;;;;;22.03;20.03;;;15.90;99.90;;;;;;5032581;28;20670;-67
2021/07/28 03:32:29;;;;;;;23.00;19.57;;;15.90;99.90;;;;;;5032545;28;20174;-67
2021/07/28 03:34:55;;;;;;;21.90;19.77;;;15.90;99.90;;;;;;5031837;28;20203;-65
2021/07/28 03:37:20;;;;;;;20.83;18.83;;;15.80;99.90;;;;;;5032209;28;20637;-66
2021/07/28 03:39:46;;;;;;;20.00;17.33;;;15.90;99.90;;;;;;5032073;28;20206;-65
2021/07/28 03:42:11;;;;;;;23.37;18.70;;;15.80;99.90;;;;;;5032138;28;20266;-66
2021/07/28 03:44:37;;;;;;;20.57;17.33;;;15.80;99.90;;;;;;5031500;28;20180;-66
2021/07/28 03:47:03;;;;;;;22.07;15.27;;;15.80;99.90;;;;;;5032346;28;20225;-65
2021/07/28 03:49:28;;;;;;;18.03;15.43;;;15.80;99.90;;;;;;5032107;28;20285;-66
2021/07/28 03:51:54;;;;;;;23.43;16.23;;;15.80;99.90;;;;;;5031057;28;20187;-65
2021/07/28 03:54:20;;;;;;;18.07;16.17;;;15.80;99.90;;;;;;5031598;28;20226;-67
2021/07/28 03:56:45;;;;;;;22.17;17.77;;;15.80;99.90;;;;;;5032140;28;20171;-66
2021/07/28 03:59:11;;;;;;;25.03;18.10;;;15.80;99.90;;;;;;5031660;28;20203;-65
2021/07/28 04:01:36;;;;;;;21.30;19.20;;;15.90;99.90;;;;;;5032138;28;20701;-66
2021/07/28 04:04:02;;;;;;;21.53;19.03;;;15.90;99.90;;;;;;5031828;28;20194;-67
2021/07/28 04:06:27;;;;;;;18.10;16.20;;;16.00;99.90;;;;;;5031819;28;20172;-66
2021/07/28 04:08:53;;;;;;;19.57;17.47;;;16.00;99.90;;;;;;5031620;28;20199;-66
2021/07/28 04:11:19;;;;;;;21.20;18.40;;;16.00;99.90;;;;;;5032126;28;20176;-66
2021/07/28 04:13:44;;;;;;;21.90;17.90;;;16.10;99.90;;;;;;5031579;28;20293;-67
2021/07/28 04:16:10;;;;;;;21.27;17.83;;;16.10;99.90;;;;;;5031856;28;20266;-66
2021/07/28 04:18:35;;;;;;;22.57;20.27;;;16.10;99.90;;;;;;5031419;28;20199;-68
2021/07/28 04:21:01;;;;;;;19.20;16.83;;;16.10;99.90;;;;;;5031325;28;20207;-66
2021/07/28 04:23:27;;;;;;;19.47;15.40;;;16.20;99.90;;;;;;5031401;28;20523;-67
2021/07/28 04:25:52;;;;;;;19.17;17.03;;;16.20;99.90;;;;;;5031400;28;20229;-66
2021/07/28 04:28:18;;;;;;;18.83;16.67;;;16.20;99.90;;;;;;5031310;28;20209;-65
2021/07/28 04:30:43;;;;;;;20.03;15.43;;;16.20;99.90;;;;;;5031619;28;20637;-66
2021/07/28 04:33:09;;;;;;;22.27;16.53;;;16.10;99.90;;;;;;5031322;28;20191;-67
2021/07/28 04:35:35;;;;;;;21.47;16.67;;;16.20;99.90;;;;;;5031459;28;20179;-67
2021/07/28 04:38:00;;;;;;;19.90;16.00;;;16.20;99.90;;;;;;5031472;28;20191;-66
2021/07/28 04:40:26;;;;;;;20.07;17.10;;;16.20;99.90;;;;;;5031324;28;20185;-65
2021/07/28 04:42:51;;;;;;;23.30;18.77;;;16.30;99.90;;;;;;5030941;28;20597;-66
2021/07/28 04:45:18;;;;;;;20.00;17.90;;;16.30;99.90;;;;;;5031206;28;20247;-67
2021/07/28 04:47:43;;;;;;;24.27;21.97;;;16.30;99.90;;;;;;5031136;28;20179;-66
2021/07/28 04:50:09;;;;;;;19.00;17.00;;;16.30;99.90;;;;;;5031471;28;20225;-66
2021/07/28 04:52:35;;;;;;;25.90;19.03;;;16.40;99.90;;;;;;5030826;28;20194;-65
2021/07/28 04:55:01;;;;;;;18.03;16.33;;;16.40;99.90;;;;;;5031196;28;20226;-66
2021/07/28 04:57:26;;;;;;;18.93;16.30;;;16.40;99.90;;;;;;5031126;28;20210;-66
2021/07/28 04:59:52;;;;;;;17.57;15.20;;;16.50;99.90;;;;;;5031593;28;20195;-66
2021/07/28 05:02:18;;;;;;;18.23;15.53;;;16.50;99.90;;;;;;5030944;28;20262;-66
2021/07/28 05:04:43;;;;;;;18.70;16.17;;;16.60;99.90;;;;;;5030866;28;20174;-66
2021/07/28 05:07:09;;;;;;;17.63;15.83;;;16.60;99.90;;;;;;5031101;28;20175;-65
2021/07/28 05:09:34;;;;;;;17.10;15.30;;;16.70;99.90;;;;;;5029928;28;20203;-66
2021/07/28 05:12:00;;;;;;;16.43;14.73;;;16.80;99.90;;;;;;5031117;28;20187;-66
2021/07/28 05:14:26;;;;;;;17.40;14.47;;;16.80;99.90;;;;;;5030791;28;20234;-66
2021/07/28 05:16:51;;;;;;;20.23;18.23;;;16.90;99.90;;;;;;5031421;28;20566;-65
2021/07/28 05:19:17;;;;;;;19.70;17.70;;;16.90;99.90;;;;;;5031005;28;20187;-66
2021/07/28 05:21:42;;;;;;;17.63;15.77;;;16.90;99.90;;;;;;5030791;28;20167;-66
2021/07/28 05:24:08;;;;;;;15.83;14.20;;;17.00;99.90;;;;;;5030587;28;20313;-67
2021/07/28 05:26:33;;;;;;;19.30;14.97;;;17.10;99.90;;;;;;5030983;28;20172;-66
2021/07/28 05:28:59;;;;;;;17.50;14.13;;;17.10;99.90;;;;;;5031131;28;20612;-66
2021/07/28 05:31:24;;;;;;;17.93;13.27;;;17.10;99.90;;;;;;5030826;28;20194;-67
2021/07/28 05:33:50;;;;;;;16.77;14.97;;;17.20;99.90;;;;;;5033982;28;20670;-67
2021/07/28 05:36:16;;;;;;;15.87;14.27;;;17.20;99.90;;;;;;5034708;28;20175;-66
2021/07/28 05:38:41;;;;;;;15.07;13.47;;;17.20;99.90;;;;;;5034140;28;20187;-67
2021/07/28 05:41:07;;;;;;;16.77;15.10;;;17.30;99.90;;;;;;5034684;28;20189;-66
2021/07/28 05:43:32;;;;;;;14.80;13.27;;;17.30;99.90;;;;;;5034339;28;20587;-67
2021/07/28 05:45:58;;;;;;;14.77;13.13;;;17.30;99.90;;;;;;5034323;28;20175;-66
2021/07/28 05:48:24;;;;;;;14.70;13.13;;;17.30;99.90;;;;;;5034464;28;20191;-66
2021/07/28 05:50:50;;;;;;;14.37;12.80;;;17.50;99.90;;;;;;5033608;28;20194;-66
2021/07/28 05:53:16;;;;;;;14.23;12.93;;;17.50;99.90;;;;;;5034394;28;20199;-66
2021/07/28 05:55:41;;;;;;;14.27;12.87;;;17.60;99.90;;;;;;5034568;28;20214;-66
2021/07/28 05:58:07;;;;;;;14.10;12.73;;;17.60;99.90;;;;;;5034511;28;20714;-66
2021/07/28 06:00:32;;;;;;;14.00;12.73;;;17.70;99.90;;;;;;5034390;28;20187;-67
2021/07/28 06:02:58;;;;;;;13.23;11.90;;;17.70;99.90;;;;;;5034512;28;20168;-66
2021/07/28 06:05:23;;;;;;;12.47;11.27;;;17.80;99.90;;;;;;5033860;28;20209;-65
2021/07/28 06:07:49;;;;;;;15.63;12.20;;;17.80;99.90;;;;;;5034320;28;20196;-66
2021/07/28 06:10:15;;;;;;;13.27;11.90;;;17.80;99.90;;;;;;5034527;28;20725;-66
2021/07/28 06:12:41;;;;;;;12.97;11.60;;;17.90;99.90;;;;;;5034396;28;20255;-65
2021/07/28 06:15:07;;;;;;;13.17;11.93;;;17.90;99.90;;;;;;5032726;28;20265;-65
2021/07/28 06:17:33;;;;;;;13.07;11.40;;;17.90;99.90;;;;;;5033173;28;20190;-66
2021/07/28 06:19:58;;;;;;;12.13;11.00;;;17.90;99.90;;;;;;5033769;28;20168;-67
2021/07/28 06:22:24;;;;;;;12.10;10.90;;;17.90;99.90;;;;;;5033938;28;20171;-65
2021/07/28 06:24:50;;;;;;;12.00;10.90;;;18.00;99.90;;;;;;5032335;28;20565;-66
2021/07/28 06:27:19;;;;;;;11.03;10.07;;;18.10;99.90;;;;;;5033862;28;20171;-65
2021/07/28 06:29:45;;;;;;;12.70;11.17;;;18.10;99.90;;;;;;5033239;28;20226;-67
2021/07/28 06:32:10;;;;;;;11.97;10.67;;;18.20;99.90;;;;;;5034139;28;20689;-65
2021/07/28 06:34:36;;;;;;;12.50;11.40;;;18.30;99.90;;;;;;5033207;28;20210;-66
2021/07/28 06:37:02;;;;;;;13.23;10.90;;;18.30;99.90;;;;;;5033923;28;20238;-66
2021/07/28 06:39:27;;;;;;;12.37;11.13;;;18.40;99.90;;;;;;5034442;28;20199;-67
2021/07/28 06:41:53;;;;;;;10.07;9.17;;;18.40;99.90;;;;;;5034682;28;20182;-67
2021/07/28 06:44:18;;;;;;;13.17;10.10;;;18.50;99.90;;;;;;5033989;28;20733;-66
2021/07/28 06:46:44;;;;;;;10.40;9.40;;;18.50;99.90;;;;;;5033568;28;20183;-65
2021/07/28 06:49:10;;;;;;;10.90;9.80;;;18.60;99.90;;;;;;5033030;28;20195;-65
2021/07/28 06:51:36;;;;;;;11.10;10.10;;;18.70;99.90;;;;;;5032099;28;20314;-65
2021/07/28 06:54:02;;;;;;;11.07;9.60;;;18.80;99.90;;;;;;5032710;28;20743;-66
2021/07/28 06:56:28;;;;;;;10.47;9.57;;;19.00;99.90;;;;;;5033047;28;20218;-65
2021/07/28 06:58:54;;;;;;;11.37;10.27;;;19.20;99.90;;;;;;5032778;28;20195;-65
2021/07/28 07:01:20;;;;;;;10.90;10.00;;;19.50;99.90;;;;;;5033149;28;20569;-65
2021/07/28 07:03:45;;;;;;;10.93;9.97;;;19.80;99.90;;;;;;5032734;28;20193;-65
2021/07/28 07:06:11;;;;;;;10.43;9.53;;;20.10;99.90;;;;;;5032698;28;20206;-65
2021/07/28 07:08:36;;;;;;;10.60;9.57;;;20.30;99.90;;;;;;5032782;28;20210;-67
2021/07/28 07:11:02;;;;;;;11.90;10.90;;;20.50;99.90;;;;;;5032912;28;20178;-67
2021/07/28 07:13:27;;;;;;;11.27;10.40;;;20.60;99.90;;;;;;5032299;28;20176;-65
2021/07/28 07:15:53;;;;;;;10.50;9.67;;;20.70;99.90;;;;;;5032619;28;20172;-65
2021/07/28 07:18:19;;;;;;;10.40;9.60;;;20.70;99.90;;;;;;5032904;28;20195;-65
2021/07/28 07:20:44;;;;;;;10.13;9.33;;;20.70;99.90;;;;;;5032357;28;20202;-66
2021/07/28 07:23:11;;;;;;;10.70;9.63;;;20.70;99.90;;;;;;5032499;28;20199;-65
2021/07/28 07:25:37;;;;;;;9.77;9.03;;;20.60;99.90;;;;;;5032198;28;20262;-66
2021/07/28 07:28:03;;;;;;;10.03;9.23;;;20.60;99.90;;;;;;5032564;28;20778;-65
2021/07/28 07:30:29;;;;;;;11.03;10.03;;;20.70;99.90;;;;;;5032145;28;20411;-66
2021/07/28 07:35:38;;;;;;;9.82;8.93;;;21.00;99.90;;;;;;5032036;28;20198;-66
2021/07/28 07:38:04;;;;;;;9.67;8.77;;;21.20;99.90;;;;;;5032226;28;20671;-66
2021/07/28 07:40:30;;;;;;;9.48;8.68;;;21.40;99.90;;;;;;5032283;28;20214;-65
2021/07/28 07:42:55;;;;;;;8.63;7.90;;;21.70;99.90;;;;;;5032162;28;20300;-65
2021/07/28 07:45:21;;;;;;;9.13;8.30;;;22.20;99.90;;;;;;5030916;28;20629;-65
2021/07/28 07:47:47;;;;;;;7.95;7.35;;;22.90;99.90;;;;;;5031837;28;20183;-65
2021/07/28 07:50:13;;;;;;;6.78;6.28;;;22.80;99.90;;;;;;5032741;28;20255;-67
2021/07/28 07:52:38;;;;;;;8.07;7.57;;;21.40;99.90;;;;;;5032528;28;20194;-67
2021/07/28 07:55:04;;;;;;;8.27;7.67;;;19.60;99.90;;;;;;5031269;28;20388;-66
2021/07/28 07:57:30;;;;;;;7.37;6.77;;;18.50;99.90;;;;;;5033055;28;20213;-67
2021/07/28 07:59:56;;;;;;;7.90;7.30;;;18.00;99.90;;;;;;5030523;28;20198;-66
2021/07/28 08:02:23;;;;;;;8.27;7.53;;;17.80;99.90;;;;;;5031848;28;20639;-65
2021/07/28 08:04:48;;;;;;;8.50;7.90;;;17.60;99.90;;;;;;5031360;28;20179;-65
2021/07/28 08:07:14;;;;;;;9.07;8.23;;;17.60;99.90;;;;;;5031473;28;20555;-67
2021/07/28 08:09:39;;;;;;;8.30;7.70;;;17.60;99.90;;;;;;5031954;28;20208;-67
2021/07/28 08:12:05;;;;;;;8.77;7.97;;;17.60;99.90;;;;;;5032266;28;20179;-67
2021/07/28 08:14:31;;;;;;;8.97;8.20;;;17.40;99.90;;;;;;5031857;28;20218;-66
2021/07/28 08:16:56;;;;;;;8.50;7.80;;;17.30;99.90;;;;;;5031949;28;20265;-66
2021/07/28 08:19:22;;;;;;;10.53;9.70;;;17.30;99.90;;;;;;5031917;28;20199;-66
2021/07/28 08:21:48;;;;;;;8.50;7.80;;;17.70;99.90;;;;;;5032391;28;20180;-66
2021/07/28 08:24:15;;;;;;;8.20;7.50;;;18.00;99.90;;;;;;5031650;28;20270;-66
2021/07/28 08:26:40;;;;;;;7.83;7.27;;;18.30;99.90;;;;;;5032006;28;20630;-67
2021/07/28 08:29:06;;;;;;;7.60;7.10;;;19.00;99.90;;;;;;5031360;28;20213;-67
2021/07/28 08:31:31;;;;;;;8.80;8.20;;;19.80;99.90;;;;;;5031256;28;20180;-67
2021/07/28 08:33:57;;;;;;;7.35;6.75;;;20.40;99.90;;;;;;5030175;28;20618;-66
2021/07/28 08:36:22;;;;;;;6.85;6.25;;;21.10;99.90;;;;;;5031797;28;20176;-66
2021/07/28 08:38:48;;;;;;;7.47;6.88;;;21.50;99.90;;;;;;5031698;28;20199;-68
2021/07/28 08:41:17;;;;;;;6.63;6.22;;;21.90;99.90;;;;;;5031863;28;20195;-67
2021/07/28 08:43:44;;;;;;;6.47;6.07;;;22.00;99.90;;;;;;5031569;28;20265;-66
2021/07/28 08:46:12;;;;;;;6.10;5.70;;;22.30;99.90;;;;;;5031479;28;20607;-66
2021/07/28 08:48:38;;;;;;;6.68;6.07;;;22.60;99.90;;;;;;5031216;28;20210;-67
2021/07/28 08:51:05;;;;;;;7.03;6.32;;;23.00;99.90;;;;;;5031433;28;20180;-66
2021/07/28 08:53:31;;;;;;;7.45;5.72;;;23.60;99.90;;;;;;5031190;28;20542;-67
2021/07/28 08:56:00;;;;;;;6.93;6.22;;;23.60;99.90;;;;;;5030626;28;20176;-66
2021/07/28 08:58:26;;;;;;;6.35;5.85;;;23.70;99.90;;;;;;5031040;28;20194;-66
2021/07/28 09:00:53;;;;;;;6.40;6.00;;;23.70;99.90;;;;;;5030910;28;20213;-66
2021/07/28 09:03:19;;;;;;;6.65;6.15;;;23.60;99.90;;;;;;5031109;28;20686;-66
2021/07/28 09:05:50;;;;;;;8.05;5.63;;;23.60;99.90;;;;;;5030931;28;20279;-66
2021/07/28 09:08:33;;;;;;;6.50;6.00;;;23.80;99.90;;;;;;5035126;28;20556;-67
2021/07/28 09:11:03;;;;;;;5.75;5.35;;;24.40;99.90;;;;;;5015695;28;20512;-66
2021/07/28 09:13:34;;;;;;;5.80;5.40;;;24.60;99.90;;;;;;5016495;28;20168;-66
2021/07/28 09:16:09;;;;;;;6.50;5.90;;;25.10;99.90;;;;;;5035100;28;20742;-68
2021/07/28 09:18:48;;;;;;;6.00;5.53;;;25.50;99.90;;;;;;5034838;28;20558;-68
2021/07/28 09:21:19;;;;;;;6.00;5.65;;;25.40;99.90;;;;;;5035179;28;20171;-66
2021/07/28 09:23:48;;;;;;;6.07;5.60;;;25.70;99.90;;;;;;5034690;28;20191;-66
2021/07/28 09:26:33;;;;;;;6.03;5.50;;;26.10;99.90;;;;;;5034725;28;20187;-66
2021/07/28 09:29:07;;;;;;;6.50;5.97;;;25.90;99.90;;;;;;5034574;28;20697;-66
2021/07/28 09:31:55;;;;;;;6.25;5.57;;;26.20;99.90;;;;;;5035076;28;20250;-68
2021/07/28 09:34:24;;;;;;;5.47;5.13;;;26.40;99.90;;;;;;5016933;28;20343;-67
2021/07/28 09:36:52;;;;;;;5.93;5.53;;;26.50;99.90;;;;;;5034932;28;20228;-66
2021/07/28 09:39:31;;;;;;;6.10;5.70;;;25.60;99.90;;;;;;5034718;28;20289;-68
2021/07/28 09:41:59;;;;;;;5.82;5.43;;;25.40;99.90;;;;;;5034707;28;20167;-66
2021/07/28 09:44:28;;;;;;;6.43;5.93;;;25.00;99.90;;;;;;5033997;28;20179;-67
2021/07/28 09:47:04;;;;;;;6.10;5.70;;;24.80;99.90;;;;;;5034757;28;20240;-66
2021/07/28 09:49:30;;;;;;;6.05;5.65;;;24.20;99.90;;;;;;5034413;28;20666;-68
2021/07/28 09:51:56;;;;;;;6.13;5.72;;;23.90;99.90;;;;;;5033594;28;20176;-67
2021/07/28 09:54:26;;;;;;;7.07;6.40;;;23.40;99.90;;;;;;5034250;28;20207;-67
2021/07/28 09:56:56;;;;;;;6.00;5.38;;;23.00;99.90;;;;;;5034847;28;20246;-67
2021/07/28 09:59:22;;;;;;;6.35;5.85;;;23.00;99.90;;;;;;5033990;28;20196;-67
2021/07/28 10:01:48;;;;;;;6.47;5.97;;;23.30;99.90;;;;;;5035166;28;20175;-68
2021/07/28 10:04:17;;;;;;;6.75;6.15;;;23.90;99.90;;;;;;5034596;28;20182;-68
2021/07/28 10:06:53;;;;;;;6.13;5.63;;;24.80;99.90;;;;;;5034371;28;20588;-67
2021/07/28 10:09:22;;;;;;;5.60;5.20;;;25.30;99.90;;;;;;5034307;28;20278;-67
2021/07/28 10:11:52;;;;;;;6.55;5.95;;;25.10;99.90;;;;;;5032968;28;20234;-66
2021/07/28 10:14:19;;;;;;;6.03;5.50;;;24.60;99.90;;;;;;5034285;28;20276;-67
2021/07/28 10:16:46;;;;;;;6.43;5.93;;;24.10;99.90;;;;;;5034535;28;20167;-67
2021/07/28 10:19:11;;;;;;;6.22;5.40;;;23.80;99.90;;;;;;5033335;28;20203;-66
2021/07/28 10:21:38;;;;;;;6.18;5.68;;;23.50;99.90;;;;;;5033542;28;20180;-67
2021/07/28 10:24:06;;;;;;;6.10;5.50;;;23.40;99.90;;;;;;5033313;28;20210;-67
2021/07/28 10:26:38;;;;;;;6.13;5.63;;;23.20;99.90;;;;;;5033201;28;20663;-66
2021/07/28 10:29:04;;;;;;;6.30;5.75;;;23.30;99.90;;;;;;5032381;28;20206;-66
2021/07/28 10:31:43;;;;;;;6.78;6.18;;;23.40;99.90;;;;;;5033241;28;20191;-66
2021/07/28 10:34:33;;;;;;;6.57;5.97;;;23.80;99.90;;;;;;5033336;28;20218;-67
2021/07/28 10:37:08;;;;;;;5.65;5.25;;;24.30;99.90;;;;;;5013569;28;20177;-67
2021/07/28 10:39:44;;;;;;;5.90;5.40;;;24.50;99.90;;;;;;5015061;28;20206;-67
2021/07/28 10:42:10;;;;;;;5.63;5.10;;;24.80;99.90;;;;;;5032702;28;20606;-67
2021/07/28 10:45:03;;;;;;;5.82;5.43;;;24.90;99.90;;;;;;5032693;28;20184;-66
2021/07/28 10:47:35;;;;;;;5.22;4.93;;;25.30;99.90;;;;;;5032924;28;20662;-67
2021/07/28 10:50:02;;;;;;;5.28;4.93;;;25.30;99.90;;;;;;5031431;28;20190;-67
2021/07/28 10:52:44;;;;;;;5.70;5.20;;;25.50;99.90;;;;;;5031228;28;20168;-66
2021/07/28 10:55:11;;;;;;;5.47;5.10;;;25.70;99.90;;;;;;5032625;28;20199;-66
2021/07/28 10:57:45;;;;;;;5.18;4.88;;;25.90;99.90;;;;;;5031605;28;20266;-67
2021/07/28 11:00:32;;;;;;;5.45;5.07;;;26.10;99.90;;;;;;5032911;28;20186;-67
2021/07/28 11:02:58;;;;;;;5.47;5.13;;;26.20;99.90;;;;;;5032865;28;20179;-66
2021/07/28 11:05:33;;;;;;;5.78;5.47;;;26.40;99.90;;;;;;5032434;28;20630;-66
2021/07/28 11:07:59;;;;;;;6.18;5.68;;;26.70;99.90;;;;;;5033019;28;20195;-66
2021/07/28 11:10:25;;;;;;;4.78;4.38;;;26.70;99.90;;;;;;5032520;28;20171;-66
2021/07/28 11:12:51;;;;;;;5.20;4.90;;;26.50;99.90;;;;;;5032944;28;20174;-66
2021/07/28 11:15:18;;;;;;;5.85;5.45;;;26.40;99.90;;;;;;5032354;28;20207;-66
2021/07/28 11:17:44;;;;;;;5.00;4.65;;;26.30;99.90;;;;;;5032748;28;20172;-66
2021/07/28 11:20:30;;;;;;;5.15;4.75;;;26.40;99.90;;;;;;5032734;28;20258;-67
2021/07/28 11:23:23;;;;;;;4.90;4.60;;;26.60;99.90;;;;;;5032077;28;20226;-67
2021/07/28 11:25:49;;;;;;;5.32;4.97;;;26.90;99.90;;;;;;5032207;28;20667;-66
2021/07/28 11:28:21;;;;;;;5.50;5.15;;;27.40;99.90;;;;;;5033417;28;20191;-67
2021/07/28 11:31:10;;;;;;;6.05;5.65;;;27.30;99.90;;;;;;5032320;28;20635;-67
2021/07/28 11:33:37;;;;;;;5.05;4.75;;;27.90;99.90;;;;;;5032531;28;20595;-67
2021/07/28 11:36:03;;;;;;;5.75;5.30;;;28.10;99.90;;;;;;5032164;28;20175;-67
2021/07/28 11:38:33;;;;;;;6.10;5.70;;;28.00;99.90;;;;;;5032536;28;20187;-67
2021/07/28 11:41:00;;;;;;;5.95;5.47;;;28.20;99.90;;;;;;5032169;28;20644;-66
2021/07/28 11:43:29;;;;;;;5.72;5.22;;;28.10;99.90;;;;;;5032494;28;20195;-66
2021/07/28 11:46:02;;;;;;;5.43;5.10;;;27.60;99.90;;;;;;5032070;28;20210;-67
2021/07/28 11:48:37;;;;;;;6.13;5.72;;;26.80;99.90;;;;;;5032036;28;20188;-67
2021/07/28 11:51:06;;;;;;;4.50;4.10;;;26.10;99.90;;;;;;5031494;28;20181;-67
2021/07/28 11:53:33;;;;;;;5.15;4.78;;;25.90;99.90;;;;;;5032060;28;20573;-68
2021/07/28 11:56:09;;;;;;;4.78;4.47;;;25.30;99.90;;;;;;5031376;28;20186;-67
2021/07/28 11:58:50;;;;;;;4.95;4.65;;;25.10;99.90;;;;;;5032035;28;20214;-67
2021/07/28 12:01:29;;;;;;;4.63;4.32;;;24.70;99.90;;;;;;5032064;28;20641;-67
2021/07/28 12:03:59;;;;;;;4.38;4.15;;;24.70;99.90;;;;;;5031869;28;20179;-66
2021/07/28 12:06:39;;;;;;;5.13;4.72;;;24.60;99.90;;;;;;5032011;28;20666;-65
2021/07/28 12:09:19;;;;;;;5.10;4.80;;;24.50;99.90;;;;;;5030584;28;20520;-67
2021/07/28 12:12:04;;;;;;;4.80;4.50;;;24.00;99.90;;;;;;5032242;28;20175;-66
2021/07/28 12:14:33;;;;;;;5.05;4.82;;;23.60;99.90;;;;;;5031438;28;20206;-67
2021/07/28 12:17:17;;;;;;;4.57;4.28;;;23.40;99.90;;;;;;5032056;28;20175;-66
2021/07/28 12:20:03;;;;;;;5.65;5.00;;;23.40;99.90;;;;;;5031689;28;20281;-68
2021/07/28 12:22:31;;;;;;;5.38;5.07;;;23.70;99.90;;;;;;5031304;28;20229;-67
2021/07/28 12:25:19;;;;;;;4.90;4.47;;;24.00;99.90;;;;;;5031401;28;20175;-66
2021/07/28 12:27:57;;;;;;;4.72;4.32;;;24.90;99.90;;;;;;5031601;28;20191;-66
2021/07/28 12:30:32;;;;;;;5.18;4.85;;;25.80;99.90;;;;;;5031537;28;20167;-66
2021/07/28 12:33:12;;;;;;;4.70;4.40;;;26.40;99.90;;;;;;5031392;28;20228;-66
2021/07/28 12:35:47;;;;;;;4.53;4.15;;;27.00;99.90;;;;;;5031625;28;20223;-67
2021/07/28 12:38:20;;;;;;;5.15;4.72;;;27.40;99.90;;;;;;5030206;28;20194;-67
2021/07/28 12:40:49;;;;;;;5.30;4.80;;;27.30;99.90;;;;;;5031347;28;20191;-66
2021/07/28 12:43:15;;;;;;;5.85;5.55;;;27.10;99.90;;;;;;5031565;28;20183;-68
2021/07/28 12:45:42;;;;;;;5.63;5.22;;;27.20;99.90;;;;;;5031722;28;20849;-68
2021/07/28 12:48:08;;;;;;;5.22;4.82;;;27.00;99.90;;;;;;5031357;28;20210;-67
2021/07/28 12:50:34;;;;;;;5.15;4.85;;;27.20;99.90;;;;;;5031471;28;20175;-68